PVD weather

Theodore Francis Green State Airport
Providence, Rhode Island, United States

Public forecast

Using degrees Fahrenheit for public forecast. Weather courtesy of forecast.io.

METAR (pilot weather report)

Retrieved 2019/04/23 23:18 UTC (13 minutes ago):

KPVD 232318Z 16009KT 10SM OVC010 11/08 A2990

TAF (pilot weather forecast)

Forecast is more than 6 hours old.

Retrieved 2019/04/23 12:30 UTC (11 hours ago):

TAF KPVD 231129Z 2312/2412 36011KT P6SM VCSH OVC012 TEMPO 2312/2314 P6SM OVC009 FM231600 01008KT P6SM OVC020 FM231900 04006KT P6SM BKN040 FM240400 17008KT P6SM VCSH BKN045 FM241100 23007KT 3SM BR BKN030